sensor_id;sensor_type;location;lat;lon;timestamp;pressure;altitude;pressure_sealevel;temperature;humidity
2841;BME280;53423;49.224;12.074;2023-05-21T00:00:13;97542.97;;;16.84;62.28
2841;BME280;53423;49.224;12.074;2023-05-21T00:02:42;97547.25;;;16.85;62.29
2841;BME280;53423;49.224;12.074;2023-05-21T00:05:10;97550.53;;;16.74;62.56
2841;BME280;53423;49.224;12.074;2023-05-21T00:07:40;97537.25;;;16.87;62.22
2841;BME280;53423;49.224;12.074;2023-05-21T00:10:09;97542.38;;;16.82;62.56
2841;BME280;53423;49.224;12.074;2023-05-21T00:12:37;97539.72;;;16.82;63.13
2841;BME280;53423;49.224;12.074;2023-05-21T00:15:06;97530.13;;;16.94;62.66
2841;BME280;53423;49.224;12.074;2023-05-21T00:17:34;97537.72;;;16.71;63.42
2841;BME280;53423;49.224;12.074;2023-05-21T00:20:06;97538.09;;;16.81;63.11
2841;BME280;53423;49.224;12.074;2023-05-21T00:22:35;97530.94;;;16.82;62.45
2841;BME280;53423;49.224;12.074;2023-05-21T00:25:04;97529.75;;;16.78;62.23
2841;BME280;53423;49.224;12.074;2023-05-21T00:27:32;97526.88;;;16.92;62.14
2841;BME280;53423;49.224;12.074;2023-05-21T00:30:00;97525.47;;;16.77;62.22
2841;BME280;53423;49.224;12.074;2023-05-21T00:32:28;97527.53;;;16.75;62.52
2841;BME280;53423;49.224;12.074;2023-05-21T00:34:56;97522.22;;;16.75;63.32
2841;BME280;53423;49.224;12.074;2023-05-21T00:37:26;97513.88;;;16.78;63.13
2841;BME280;53423;49.224;12.074;2023-05-21T00:39:55;97516.94;;;16.75;62.59
2841;BME280;53423;49.224;12.074;2023-05-21T00:42:24;97523.03;;;16.75;63.75
2841;BME280;53423;49.224;12.074;2023-05-21T00:44:52;97521.81;;;16.78;62.87
2841;BME280;53423;49.224;12.074;2023-05-21T00:47:20;97523.63;;;16.77;63.56
2841;BME280;53423;49.224;12.074;2023-05-21T00:49:49;97517.94;;;16.80;62.58
2841;BME280;53423;49.224;12.074;2023-05-21T00:52:18;97510.19;;;16.79;62.70
2841;BME280;53423;49.224;12.074;2023-05-21T00:54:49;97520.59;;;16.74;62.72
2841;BME280;53423;49.224;12.074;2023-05-21T00:57:18;97514.28;;;16.81;63.33
2841;BME280;53423;49.224;12.074;2023-05-21T00:59:50;97514.50;;;16.73;63.50
2841;BME280;53423;49.224;12.074;2023-05-21T01:02:18;97513.06;;;16.71;63.18
2841;BME280;53423;49.224;12.074;2023-05-21T01:04:50;97514.50;;;16.73;63.12
2841;BME280;53423;49.224;12.074;2023-05-21T01:07:18;97511.44;;;16.63;63.56
2841;BME280;53423;49.224;12.074;2023-05-21T01:09:46;97514.91;;;16.64;64.04
2841;BME280;53423;49.224;12.074;2023-05-21T01:12:16;97509.84;;;16.56;64.05
2841;BME280;53423;49.224;12.074;2023-05-21T01:14:46;97506.75;;;16.65;63.21
2841;BME280;53423;49.224;12.074;2023-05-21T01:17:15;97502.91;;;16.68;63.33
2841;BME280;53423;49.224;12.074;2023-05-21T01:19:43;97500.88;;;16.57;63.84
2841;BME280;53423;49.224;12.074;2023-05-21T01:22:11;97500.28;;;16.55;64.26
2841;BME280;53423;49.224;12.074;2023-05-21T01:24:44;97501.47;;;16.59;63.87
2841;BME280;53423;49.224;12.074;2023-05-21T01:27:13;97501.06;;;16.42;63.97
2841;BME280;53423;49.224;12.074;2023-05-21T01:29:41;97501.91;;;16.36;63.79
2841;BME280;53423;49.224;12.074;2023-05-21T01:32:15;97498.63;;;16.34;63.23
2841;BME280;53423;49.224;12.074;2023-05-21T01:34:49;97498.63;;;16.34;63.40
2841;BME280;53423;49.224;12.074;2023-05-21T01:37:24;97502.69;;;16.37;62.98
2841;BME280;53423;49.224;12.074;2023-05-21T01:39:59;97502.09;;;16.35;63.29
2841;BME280;53423;49.224;12.074;2023-05-21T01:42:30;97504.34;;;16.38;63.88
2841;BME280;53423;49.224;12.074;2023-05-21T01:45:00;97499.47;;;16.48;63.89
2841;BME280;53423;49.224;12.074;2023-05-21T01:47:32;97500.06;;;16.37;63.89
2841;BME280;53423;49.224;12.074;2023-05-21T01:50:04;97503.31;;;16.26;64.14
2841;BME280;53423;49.224;12.074;2023-05-21T01:52:32;97496.41;;;16.31;63.86
2841;BME280;53423;49.224;12.074;2023-05-21T01:55:01;97497.00;;;16.33;62.88
2841;BME280;53423;49.224;12.074;2023-05-21T01:57:29;97499.06;;;16.38;63.46
2841;BME280;53423;49.224;12.074;2023-05-21T01:59:58;97496.19;;;16.33;63.68
2841;BME280;53423;49.224;12.074;2023-05-21T02:02:27;97495.19;;;16.27;64.07
2841;BME280;53423;49.224;12.074;2023-05-21T02:04:55;97495.19;;;16.21;63.82
2841;BME280;53423;49.224;12.074;2023-05-21T02:07:22;97495.41;;;16.19;64.33
2841;BME280;53423;49.224;12.074;2023-05-21T02:09:50;97495.19;;;16.14;64.14
2841;BME280;53423;49.224;12.074;2023-05-21T02:12:20;97493.53;;;16.19;64.22
2841;BME280;53423;49.224;12.074;2023-05-21T02:14:47;97492.13;;;16.17;64.42
2841;BME280;53423;49.224;12.074;2023-05-21T02:17:15;97486.03;;;16.16;64.26
2841;BME280;53423;49.224;12.074;2023-05-21T02:19:44;97488.88;;;16.15;63.69
2841;BME280;53423;49.224;12.074;2023-05-21T02:22:11;97495.19;;;16.21;63.86
2841;BME280;53423;49.224;12.074;2023-05-21T02:24:39;97493.16;;;16.23;63.85
2841;BME280;53423;49.224;12.074;2023-05-21T02:27:08;97488.47;;;16.31;64.21
2841;BME280;53423;49.224;12.074;2023-05-21T02:29:40;97484.19;;;16.30;63.39
2841;BME280;53423;49.224;12.074;2023-05-21T02:32:08;97488.47;;;16.18;63.82
2841;BME280;53423;49.224;12.074;2023-05-21T02:34:37;97492.34;;;16.22;63.71
2841;BME280;53423;49.224;12.074;2023-05-21T02:37:07;97482.38;;;16.11;64.16
2841;BME280;53423;49.224;12.074;2023-05-21T02:39:36;97481.75;;;16.15;64.28
2841;BME280;53423;49.224;12.074;2023-05-21T02:42:04;97477.47;;;16.08;64.51
2841;BME280;53423;49.224;12.074;2023-05-21T02:44:32;97472.81;;;16.16;64.39
2841;BME280;53423;49.224;12.074;2023-05-21T02:47:01;97481.53;;;16.24;63.78
2841;BME280;53423;49.224;12.074;2023-05-21T02:49:29;97480.94;;;16.22;64.51
2841;BME280;53423;49.224;12.074;2023-05-21T02:51:57;97474.44;;;16.17;64.65
2841;BME280;53423;49.224;12.074;2023-05-21T02:54:25;97474.03;;;16.14;64.63
2841;BME280;53423;49.224;12.074;2023-05-21T02:56:53;97480.94;;;16.08;64.49
2841;BME280;53423;49.224;12.074;2023-05-21T02:59:21;97485.22;;;15.96;64.76
2841;BME280;53423;49.224;12.074;2023-05-21T03:01:49;97476.28;;;15.97;64.89
2841;BME280;53423;49.224;12.074;2023-05-21T03:04:18;97475.03;;;16.06;64.42
2841;BME280;53423;49.224;12.074;2023-05-21T03:06:48;97478.31;;;15.95;63.98
2841;BME280;53423;49.224;12.074;2023-05-21T03:09:17;97472.41;;;16.00;64.67
2841;BME280;53423;49.224;12.074;2023-05-21T03:11:45;97472.41;;;16.00;64.43
2841;BME280;53423;49.224;12.074;2023-05-21T03:14:13;97466.91;;;16.01;64.16
2841;BME280;53423;49.224;12.074;2023-05-21T03:16:41;97471.56;;;15.99;64.65
2841;BME280;53423;49.224;12.074;2023-05-21T03:19:10;97469.56;;;15.88;64.85
2841;BME280;53423;49.224;12.074;2023-05-21T03:21:40;97476.66;;;15.88;64.47
2841;BME280;53423;49.224;12.074;2023-05-21T03:24:08;97477.47;;;15.88;65.21
2841;BME280;53423;49.224;12.074;2023-05-21T03:26:39;97480.53;;;15.79;64.51
2841;BME280;53423;49.224;12.074;2023-05-21T03:29:07;97477.06;;;15.85;64.86
2841;BME280;53423;49.224;12.074;2023-05-21T03:31:35;97473.03;;;15.89;64.69
2841;BME280;53423;49.224;12.074;2023-05-21T03:34:03;97476.66;;;15.81;64.44
2841;BME280;53423;49.224;12.074;2023-05-21T03:36:31;97485.00;;;15.72;65.02
2841;BME280;53423;49.224;12.074;2023-05-21T03:39:00;97484.38;;;15.70;65.40
2841;BME280;53423;49.224;12.074;2023-05-21T03:41:29;97484.38;;;15.89;64.49
2841;BME280;53423;49.224;12.074;2023-05-21T03:43:57;97490.06;;;15.80;64.92
2841;BME280;53423;49.224;12.074;2023-05-21T03:46:25;97490.50;;;15.90;64.75
2841;BME280;53423;49.224;12.074;2023-05-21T03:48:53;97481.72;;;15.63;64.38
2841;BME280;53423;49.224;12.074;2023-05-21T03:51:23;97484.97;;;15.52;64.94
2841;BME280;53423;49.224;12.074;2023-05-21T03:53:51;97485.41;;;15.69;65.08
2841;BME280;53423;49.224;12.074;2023-05-21T03:56:21;97486.41;;;15.68;65.36
2841;BME280;53423;49.224;12.074;2023-05-21T03:58:49;97485.00;;;15.85;64.89
2841;BME280;53423;49.224;12.074;2023-05-21T04:01:17;97488.06;;;15.82;65.11
2841;BME280;53423;49.224;12.074;2023-05-21T04:03:45;97487.63;;;15.72;65.30
2841;BME280;53423;49.224;12.074;2023-05-21T04:06:13;97493.75;;;15.79;65.22
2841;BME280;53423;49.224;12.074;2023-05-21T04:08:41;97487.44;;;15.93;64.37
2841;BME280;53423;49.224;12.074;2023-05-21T04:11:10;97490.50;;;15.96;65.18
2841;BME280;53423;49.224;12.074;2023-05-21T04:13:39;97494.38;;;16.00;64.96
2841;BME280;53423;49.224;12.074;2023-05-21T04:16:07;97492.72;;;15.99;64.75
2841;BME280;53423;49.224;12.074;2023-05-21T04:18:35;97480.94;;;15.95;64.71
2841;BME280;53423;49.224;12.074;2023-05-21T04:21:03;97484.22;;;16.04;64.82
2841;BME280;53423;49.224;12.074;2023-05-21T04:23:31;97487.66;;;16.11;64.09
2841;BME280;53423;49.224;12.074;2023-05-21T04:26:02;97482.97;;;16.06;64.87
2841;BME280;53423;49.224;12.074;2023-05-21T04:28:30;97493.94;;;16.23;63.65
2841;BME280;53423;49.224;12.074;2023-05-21T04:31:00;97484.59;;;16.27;64.57
2841;BME280;53423;49.224;12.074;2023-05-21T04:33:28;97495.78;;;16.29;64.40
2841;BME280;53423;49.224;12.074;2023-05-21T04:35:56;97484.59;;;16.40;64.00
2841;BME280;53423;49.224;12.074;2023-05-21T04:38:24;97482.13;;;16.58;63.18
2841;BME280;53423;49.224;12.074;2023-05-21T04:40:52;97488.03;;;16.67;62.99
2841;BME280;53423;49.224;12.074;2023-05-21T04:43:21;97491.88;;;16.77;62.56
2841;BME280;53423;49.224;12.074;2023-05-21T04:45:51;97488.78;;;16.87;62.19
2841;BME280;53423;49.224;12.074;2023-05-21T04:48:22;97483.22;;;17.08;61.90
2841;BME280;53423;49.224;12.074;2023-05-21T04:50:51;97480.72;;;17.19;61.27
2841;BME280;53423;49.224;12.074;2023-05-21T04:53:21;97488.19;;;17.35;60.79
2841;BME280;53423;49.224;12.074;2023-05-21T04:55:49;97485.53;;;17.42;61.19
2841;BME280;53423;49.224;12.074;2023-05-21T04:58:17;97486.31;;;17.49;60.21
2841;BME280;53423;49.224;12.074;2023-05-21T05:00:45;97485.03;;;17.58;60.60
2841;BME280;53423;49.224;12.074;2023-05-21T05:03:16;97486.03;;;17.64;59.88
2841;BME280;53423;49.224;12.074;2023-05-21T05:05:46;97487.38;;;17.73;59.95
2841;BME280;53423;49.224;12.074;2023-05-21T05:08:14;97490.53;;;17.88;59.88
2841;BME280;53423;49.224;12.074;2023-05-21T05:10:42;97488.38;;;18.09;59.12
2841;BME280;53423;49.224;12.074;2023-05-21T05:13:10;97479.47;;;18.22;58.24
2841;BME280;53423;49.224;12.074;2023-05-21T05:15:38;97478.91;;;18.38;57.80
2841;BME280;53423;49.224;12.074;2023-05-21T05:18:06;97484.53;;;18.54;58.10
2841;BME280;53423;49.224;12.074;2023-05-21T05:20:35;97485.47;;;18.60;57.68
2841;BME280;53423;49.224;12.074;2023-05-21T05:23:04;97481.00;;;18.79;57.26
2841;BME280;53423;49.224;12.074;2023-05-21T05:25:32;97492.72;;;18.89;57.06
2841;BME280;53423;49.224;12.074;2023-05-21T05:28:00;97487.63;;;19.06;57.09
2841;BME280;53423;49.224;12.074;2023-05-21T05:30:28;97482.19;;;19.37;55.39
2841;BME280;53423;49.224;12.074;2023-05-21T05:32:56;97491.06;;;19.60;54.45
2841;BME280;53423;49.224;12.074;2023-05-21T05:35:24;97492.47;;;19.74;53.96
2841;BME280;53423;49.224;12.074;2023-05-21T05:37:52;97487.78;;;19.88;53.71
2841;BME280;53423;49.224;12.074;2023-05-21T05:40:21;97485.75;;;20.13;52.43
2841;BME280;53423;49.224;12.074;2023-05-21T05:42:49;97482.81;;;20.33;52.51
2841;BME280;53423;49.224;12.074;2023-05-21T05:45:18;97485.13;;;20.52;51.80
2841;BME280;53423;49.224;12.074;2023-05-21T05:47:46;97482.44;;;20.75;51.18
2841;BME280;53423;49.224;12.074;2023-05-21T05:50:14;97483.25;;;20.99;50.99
2841;BME280;53423;49.224;12.074;2023-05-21T05:52:42;97478.63;;;21.34;49.41
2841;BME280;53423;49.224;12.074;2023-05-21T05:55:10;97487.03;;;21.54;49.06
2841;BME280;53423;49.224;12.074;2023-05-21T05:57:39;97470.34;;;21.75;49.18
2841;BME280;53423;49.224;12.074;2023-05-21T06:00:11;97491.19;;;22.06;47.75
2841;BME280;53423;49.224;12.074;2023-05-21T06:02:39;97493.13;;;22.11;47.26
2841;BME280;53423;49.224;12.074;2023-05-21T06:05:08;97486.19;;;22.60;46.53
2841;BME280;53423;49.224;12.074;2023-05-21T06:07:36;97482.59;;;22.87;46.08
2841;BME280;53423;49.224;12.074;2023-05-21T06:10:05;97484.81;;;23.33;45.04
2841;BME280;53423;49.224;12.074;2023-05-21T06:12:33;97481.47;;;23.70;44.00
2841;BME280;53423;49.224;12.074;2023-05-21T06:15:03;97488.88;;;23.89;43.29
2841;BME280;53423;49.224;12.074;2023-05-21T06:17:32;97479.53;;;24.18;42.81
2841;BME280;53423;49.224;12.074;2023-05-21T06:20:00;97474.97;;;24.50;41.80
2841;BME280;53423;49.224;12.074;2023-05-21T06:22:28;97478.00;;;24.64;41.80
2841;BME280;53423;49.224;12.074;2023-05-21T06:24:55;97476.25;;;24.75;41.70
2841;BME280;53423;49.224;12.074;2023-05-21T06:27:23;97482.81;;;25.04;41.24
2841;BME280;53423;49.224;12.074;2023-05-21T06:29:51;97475.38;;;25.21;40.55
2841;BME280;53423;49.224;12.074;2023-05-21T06:32:21;97469.84;;;25.42;40.51
2841;BME280;53423;49.224;12.074;2023-05-21T06:34:49;97474.31;;;25.22;41.07
2841;BME280;53423;49.224;12.074;2023-05-21T06:37:18;97486.94;;;25.21;39.29
2841;BME280;53423;49.224;12.074;2023-05-21T06:39:47;97477.16;;;25.00;39.92
2841;BME280;53423;49.224;12.074;2023-05-21T06:42:15;97486.63;;;25.13;40.22
2841;BME280;53423;49.224;12.074;2023-05-21T06:44:43;97483.66;;;25.09;39.69
2841;BME280;53423;49.224;12.074;2023-05-21T06:47:11;97481.81;;;25.15;38.50
2841;BME280;53423;49.224;12.074;2023-05-21T06:49:40;97481.88;;;24.78;39.70
2841;BME280;53423;49.224;12.074;2023-05-21T06:52:08;97477.44;;;25.04;39.96
2841;BME280;53423;49.224;12.074;2023-05-21T06:54:37;97475.56;;;24.99;39.84
2841;BME280;53423;49.224;12.074;2023-05-21T06:57:04;97480.16;;;24.67;39.96
2841;BME280;53423;49.224;12.074;2023-05-21T06:59:32;97479.22;;;25.35;38.59
2841;BME280;53423;49.224;12.074;2023-05-21T07:02:00;97477.63;;;25.39;38.93
2841;BME280;53423;49.224;12.074;2023-05-21T07:04:30;97473.13;;;25.54;38.08
2841;BME280;53423;49.224;12.074;2023-05-21T07:07:02;97472.16;;;25.96;38.93
2841;BME280;53423;49.224;12.074;2023-05-21T07:09:30;97479.38;;;25.95;37.74
2841;BME280;53423;49.224;12.074;2023-05-21T07:11:58;97479.69;;;26.49;37.04
2841;BME280;53423;49.224;12.074;2023-05-21T07:14:26;97469.44;;;26.91;36.45
2841;BME280;53423;49.224;12.074;2023-05-21T07:16:54;97472.81;;;27.27;35.21
2841;BME280;53423;49.224;12.074;2023-05-21T07:19:22;97466.09;;;27.78;34.57
2841;BME280;53423;49.224;12.074;2023-05-21T07:21:50;97462.31;;;28.18;33.39
2841;BME280;53423;49.224;12.074;2023-05-21T07:24:20;97465.56;;;28.53;32.11
2841;BME280;53423;49.224;12.074;2023-05-21T07:26:48;97463.00;;;29.19;31.61
2841;BME280;53423;49.224;12.074;2023-05-21T07:29:15;97461.38;;;29.42;30.74
2841;BME280;53423;49.224;12.074;2023-05-21T07:31:44;97466.41;;;29.48;31.39
2841;BME280;53423;49.224;12.074;2023-05-21T07:34:11;97463.91;;;29.94;29.30
2841;BME280;53423;49.224;12.074;2023-05-21T07:36:39;97466.69;;;29.70;30.90
2841;BME280;53423;49.224;12.074;2023-05-21T07:39:07;97461.31;;;29.47;30.05
2841;BME280;53423;49.224;12.074;2023-05-21T07:41:37;97462.66;;;29.44;30.87
2841;BME280;53423;49.224;12.074;2023-05-21T07:44:05;97475.34;;;29.25;31.06
2841;BME280;53423;49.224;12.074;2023-05-21T07:46:33;97461.91;;;29.20;30.71
2841;BME280;53423;49.224;12.074;2023-05-21T07:49:01;97470.44;;;29.03;32.43
2841;BME280;53423;49.224;12.074;2023-05-21T07:51:29;97466.66;;;29.04;31.05
2841;BME280;53423;49.224;12.074;2023-05-21T07:53:57;97464.63;;;28.00;32.41
2841;BME280;53423;49.224;12.074;2023-05-21T07:56:25;97463.16;;;28.47;32.27
2841;BME280;53423;49.224;12.074;2023-05-21T07:58:55;97464.66;;;28.91;31.72
2841;BME280;53423;49.224;12.074;2023-05-21T08:01:23;97455.44;;;28.92;31.39
2841;BME280;53423;49.224;12.074;2023-05-21T08:03:51;97447.69;;;29.33;30.59
2841;BME280;53423;49.224;12.074;2023-05-21T08:06:20;97452.94;;;30.04;30.51
2841;BME280;53423;49.224;12.074;2023-05-21T08:08:49;97454.38;;;30.15;28.96
2841;BME280;53423;49.224;12.074;2023-05-21T08:11:17;97458.72;;;29.79;29.79
2841;BME280;53423;49.224;12.074;2023-05-21T08:13:45;97448.19;;;30.92;29.63
2841;BME280;53423;49.224;12.074;2023-05-21T08:16:14;97451.16;;;31.72;27.82
2841;BME280;53423;49.224;12.074;2023-05-21T08:18:43;97449.47;;;31.98;27.91
2841;BME280;53423;49.224;12.074;2023-05-21T08:21:11;97446.03;;;32.06;27.38
2841;BME280;53423;49.224;12.074;2023-05-21T08:23:39;97447.81;;;32.33;26.46
2841;BME280;53423;49.224;12.074;2023-05-21T08:26:06;97433.75;;;31.73;25.98
2841;BME280;53423;49.224;12.074;2023-05-21T08:28:36;97441.34;;;31.49;26.44
2841;BME280;53423;49.224;12.074;2023-05-21T08:31:05;97438.13;;;31.47;26.50
2841;BME280;53423;49.224;12.074;2023-05-21T08:33:34;97435.81;;;30.73;27.37
2841;BME280;53423;49.224;12.074;2023-05-21T08:36:04;97435.63;;;31.23;28.40
2841;BME280;53423;49.224;12.074;2023-05-21T08:38:33;97432.13;;;30.82;27.11
2841;BME280;53423;49.224;12.074;2023-05-21T08:41:04;97439.66;;;31.39;26.36
2841;BME280;53423;49.224;12.074;2023-05-21T08:43:36;97432.53;;;31.43;25.73
2841;BME280;53423;49.224;12.074;2023-05-21T08:46:05;97426.44;;;31.87;25.37
2841;BME280;53423;49.224;12.074;2023-05-21T08:48:37;97421.00;;;31.74;27.36
2841;BME280;53423;49.224;12.074;2023-05-21T08:51:05;97425.81;;;31.90;26.70
2841;BME280;53423;49.224;12.074;2023-05-21T08:53:33;97416.72;;;33.48;24.62
2841;BME280;53423;49.224;12.074;2023-05-21T08:56:01;97424.28;;;33.85;23.25
2841;BME280;53423;49.224;12.074;2023-05-21T08:58:31;97423.34;;;33.98;23.35
2841;BME280;53423;49.224;12.074;2023-05-21T09:00:59;97424.06;;;34.50;21.20
2841;BME280;53423;49.224;12.074;2023-05-21T09:03:27;97433.81;;;32.92;21.83
2841;BME280;53423;49.224;12.074;2023-05-21T09:05:59;97429.53;;;31.67;23.27
2841;BME280;53423;49.224;12.074;2023-05-21T09:08:30;97423.75;;;34.51;21.70
2841;BME280;53423;49.224;12.074;2023-05-21T09:11:01;97432.50;;;35.12;19.69
2841;BME280;53423;49.224;12.074;2023-05-21T09:13:30;97422.50;;;34.32;19.82
2841;BME280;53423;49.224;12.074;2023-05-21T09:15:58;97426.00;;;33.72;20.91
2841;BME280;53423;49.224;12.074;2023-05-21T09:18:26;97422.81;;;33.62;20.85
2841;BME280;53423;49.224;12.074;2023-05-21T09:20:54;97418.94;;;35.03;19.79
2841;BME280;53423;49.224;12.074;2023-05-21T09:23:27;97417.00;;;35.41;19.08
2841;BME280;53423;49.224;12.074;2023-05-21T09:25:55;97429.19;;;36.59;18.77
2841;BME280;53423;49.224;12.074;2023-05-21T09:28:24;97426.94;;;36.07;18.07
2841;BME280;53423;49.224;12.074;2023-05-21T09:30:51;97424.06;;;35.34;18.15
2841;BME280;53423;49.224;12.074;2023-05-21T09:33:24;97431.19;;;36.50;18.29
2841;BME280;53423;49.224;12.074;2023-05-21T09:35:52;97420.63;;;35.95;18.50
2841;BME280;53423;49.224;12.074;2023-05-21T09:38:21;97436.00;;;33.29;21.72
2841;BME280;53423;49.224;12.074;2023-05-21T09:40:53;97426.63;;;33.52;20.64
2841;BME280;53423;49.224;12.074;2023-05-21T09:43:21;97441.38;;;32.42;20.87
2841;BME280;53423;49.224;12.074;2023-05-21T09:45:50;97435.50;;;32.49;21.57
2841;BME280;53423;49.224;12.074;2023-05-21T09:48:32;97429.97;;;34.60;20.20
2841;BME280;53423;49.224;12.074;2023-05-21T09:51:12;97424.13;;;34.87;20.15
2841;BME280;53423;49.224;12.074;2023-05-21T09:53:47;97424.38;;;34.40;19.09
2841;BME280;53423;49.224;12.074;2023-05-21T09:56:19;97424.72;;;34.30;19.35
2841;BME280;53423;49.224;12.074;2023-05-21T09:58:51;97428.09;;;31.47;22.05
2841;BME280;53423;49.224;12.074;2023-05-21T10:01:20;97430.56;;;32.51;21.29
2841;BME280;53423;49.224;12.074;2023-05-21T10:03:53;97429.00;;;31.43;23.36
2841;BME280;53423;49.224;12.074;2023-05-21T10:06:23;97427.53;;;30.96;23.31
2841;BME280;53423;49.224;12.074;2023-05-21T10:08:54;97429.81;;;31.79;23.04
2841;BME280;53423;49.224;12.074;2023-05-21T10:11:25;97424.53;;;31.38;22.19
2841;BME280;53423;49.224;12.074;2023-05-21T10:13:56;97417.56;;;31.82;22.85
2841;BME280;53423;49.224;12.074;2023-05-21T10:16:29;97416.38;;;32.10;22.95
2841;BME280;53423;49.224;12.074;2023-05-21T10:18:59;97417.97;;;31.39;22.46
2841;BME280;53423;49.224;12.074;2023-05-21T10:21:27;97422.72;;;32.05;22.61
2841;BME280;53423;49.224;12.074;2023-05-21T10:23:56;97412.66;;;31.48;22.23
2841;BME280;53423;49.224;12.074;2023-05-21T10:26:27;97422.84;;;32.00;21.23
2841;BME280;53423;49.224;12.074;2023-05-21T10:28:56;97415.47;;;31.29;21.71
2841;BME280;53423;49.224;12.074;2023-05-21T10:31:26;97413.47;;;32.28;21.86
2841;BME280;53423;49.224;12.074;2023-05-21T10:33:54;97419.69;;;32.51;21.40
2841;BME280;53423;49.224;12.074;2023-05-21T10:36:23;97417.53;;;33.01;21.03
2841;BME280;53423;49.224;12.074;2023-05-21T10:38:51;97433.09;;;33.17;20.26
2841;BME280;53423;49.224;12.074;2023-05-21T10:41:20;97421.97;;;32.35;20.95
2841;BME280;53423;49.224;12.074;2023-05-21T10:44:04;97418.88;;;32.28;20.74
2841;BME280;53423;49.224;12.074;2023-05-21T10:47:02;97407.19;;;33.11;20.98
2841;BME280;53423;49.224;12.074;2023-05-21T10:49:40;97418.75;;;32.55;20.95
2841;BME280;53423;49.224;12.074;2023-05-21T10:52:23;97419.50;;;32.25;21.32
2841;BME280;53423;49.224;12.074;2023-05-21T10:55:06;97415.34;;;31.84;22.03
2841;BME280;53423;49.224;12.074;2023-05-21T10:58:04;97403.16;;;31.95;23.27
2841;BME280;53423;49.224;12.074;2023-05-21T11:00:39;97407.13;;;31.26;23.21
2841;BME280;53423;49.224;12.074;2023-05-21T11:03:08;97412.50;;;32.02;21.80
2841;BME280;53423;49.224;12.074;2023-05-21T11:05:37;97410.25;;;30.92;22.14
2841;BME280;53423;49.224;12.074;2023-05-21T11:08:21;97406.22;;;31.80;21.41
2841;BME280;53423;49.224;12.074;2023-05-21T11:10:53;97414.72;;;32.22;21.03
2841;BME280;53423;49.224;12.074;2023-05-21T11:13:21;97409.72;;;31.58;21.29
2841;BME280;53423;49.224;12.074;2023-05-21T11:16:06;97419.56;;;31.90;21.55
2841;BME280;53423;49.224;12.074;2023-05-21T11:18:59;97414.41;;;30.12;22.52
2841;BME280;53423;49.224;12.074;2023-05-21T11:21:29;97416.50;;;30.79;22.94
2841;BME280;53423;49.224;12.074;2023-05-21T11:24:03;97409.66;;;30.95;22.57
2841;BME280;53423;49.224;12.074;2023-05-21T11:27:00;97409.09;;;31.61;23.50
2841;BME280;53423;49.224;12.074;2023-05-21T11:29:40;97402.22;;;31.41;22.54
2841;BME280;53423;49.224;12.074;2023-05-21T11:32:12;97406.44;;;30.66;23.27
2841;BME280;53423;49.224;12.074;2023-05-21T11:34:42;97405.81;;;31.37;22.94
2841;BME280;53423;49.224;12.074;2023-05-21T11:37:30;97400.09;;;32.10;23.78
2841;BME280;53423;49.224;12.074;2023-05-21T11:40:16;97400.38;;;32.52;22.22
2841;BME280;53423;49.224;12.074;2023-05-21T11:42:48;97401.53;;;31.72;20.68
2841;BME280;53423;49.224;12.074;2023-05-21T11:45:17;97406.75;;;31.32;23.00
2841;BME280;53423;49.224;12.074;2023-05-21T11:47:47;97402.19;;;29.96;23.90
2841;BME280;53423;49.224;12.074;2023-05-21T11:50:16;97414.75;;;29.31;24.53
2841;BME280;53423;49.224;12.074;2023-05-21T11:52:44;97402.59;;;29.10;25.37
2841;BME280;53423;49.224;12.074;2023-05-21T11:55:12;97412.31;;;28.87;24.19
2841;BME280;53423;49.224;12.074;2023-05-21T11:57:42;97408.50;;;28.88;24.87
2841;BME280;53423;49.224;12.074;2023-05-21T12:00:14;97404.34;;;29.43;25.59
2841;BME280;53423;49.224;12.074;2023-05-21T12:02:44;97404.91;;;29.21;25.55
2841;BME280;53423;49.224;12.074;2023-05-21T12:05:14;97396.47;;;29.47;25.43
2841;BME280;53423;49.224;12.074;2023-05-21T12:07:45;97397.81;;;29.25;25.79
2841;BME280;53423;49.224;12.074;2023-05-21T12:10:14;97395.94;;;29.02;26.44
2841;BME280;53423;49.224;12.074;2023-05-21T12:12:42;97390.47;;;29.07;26.56
2841;BME280;53423;49.224;12.074;2023-05-21T12:15:22;97391.56;;;29.06;25.80
2841;BME280;53423;49.224;12.074;2023-05-21T12:17:50;97382.34;;;29.31;26.02
2841;BME280;53423;49.224;12.074;2023-05-21T12:20:20;97386.34;;;29.34;27.82
2841;BME280;53423;49.224;12.074;2023-05-21T12:22:49;97385.34;;;29.48;26.27
2841;BME280;53423;49.224;12.074;2023-05-21T12:25:18;97383.50;;;29.44;25.51
2841;BME280;53423;49.224;12.074;2023-05-21T12:27:47;97397.09;;;29.20;26.10
2841;BME280;53423;49.224;12.074;2023-05-21T12:30:18;97383.66;;;29.34;24.74
2841;BME280;53423;49.224;12.074;2023-05-21T12:32:47;97390.59;;;28.97;26.60
2841;BME280;53423;49.224;12.074;2023-05-21T12:35:24;97405.69;;;28.98;26.49
2841;BME280;53423;49.224;12.074;2023-05-21T12:37:52;97400.41;;;28.65;26.89
2841;BME280;53423;49.224;12.074;2023-05-21T12:40:20;97397.53;;;28.56;27.15
2841;BME280;53423;49.224;12.074;2023-05-21T12:42:48;97401.75;;;28.67;27.61
2841;BME280;53423;49.224;12.074;2023-05-21T12:45:17;97399.66;;;28.31;26.46
2841;BME280;53423;49.224;12.074;2023-05-21T12:47:48;97405.50;;;28.43;25.26
2841;BME280;53423;49.224;12.074;2023-05-21T12:50:23;97392.22;;;28.46;24.49
2841;BME280;53423;49.224;12.074;2023-05-21T12:52:54;97390.31;;;28.75;26.54
2841;BME280;53423;49.224;12.074;2023-05-21T12:55:23;97392.72;;;28.77;25.67
2841;BME280;53423;49.224;12.074;2023-05-21T12:58:00;97399.34;;;28.37;26.68
2841;BME280;53423;49.224;12.074;2023-05-21T13:00:30;97396.00;;;28.45;26.69
2841;BME280;53423;49.224;12.074;2023-05-21T13:02:58;97387.63;;;28.47;26.80
2841;BME280;53423;49.224;12.074;2023-05-21T13:05:29;97390.28;;;28.23;27.00
2841;BME280;53423;49.224;12.074;2023-05-21T13:07:57;97386.47;;;28.29;27.07
2841;BME280;53423;49.224;12.074;2023-05-21T13:10:25;97389.69;;;27.97;26.74
2841;BME280;53423;49.224;12.074;2023-05-21T13:12:53;97387.91;;;27.83;27.47